sensor_id;sensor_type;location;lat;lon;timestamp;P1;durP1;ratioP1;P2;durP2;ratioP2
29728;SDS011;20055;51.498;11.960;2023-02-28T00:00:37;11.73;;;5.68;;
29728;SDS011;20055;51.498;11.960;2023-02-28T00:03:04;13.35;;;5.57;;
29728;SDS011;20055;51.498;11.960;2023-02-28T00:05:31;10.90;;;5.38;;
29728;SDS011;20055;51.498;11.960;2023-02-28T00:07:58;19.17;;;7.25;;
29728;SDS011;20055;51.498;11.960;2023-02-28T00:10:26;10.73;;;5.43;;
29728;SDS011;20055;51.498;11.960;2023-02-28T00:12:54;7.75;;;4.35;;
29728;SDS011;20055;51.498;11.960;2023-02-28T00:15:22;9.90;;;4.70;;
29728;SDS011;20055;51.498;11.960;2023-02-28T00:17:49;6.88;;;4.53;;
29728;SDS011;20055;51.498;11.960;2023-02-28T00:20:15;12.88;;;5.18;;
29728;SDS011;20055;51.498;11.960;2023-02-28T00:22:43;9.15;;;5.07;;
29728;SDS011;20055;51.498;11.960;2023-02-28T00:25:10;9.88;;;5.75;;
29728;SDS011;20055;51.498;11.960;2023-02-28T00:27:37;10.50;;;4.82;;
29728;SDS011;20055;51.498;11.960;2023-02-28T00:30:05;7.22;;;4.72;;
29728;SDS011;20055;51.498;11.960;2023-02-28T00:32:32;9.32;;;4.90;;
29728;SDS011;20055;51.498;11.960;2023-02-28T00:35:00;11.07;;;5.00;;
29728;SDS011;20055;51.498;11.960;2023-02-28T00:37:27;5.57;;;4.32;;
29728;SDS011;20055;51.498;11.960;2023-02-28T00:39:53;19.88;;;5.30;;
29728;SDS011;20055;51.498;11.960;2023-02-28T00:42:21;9.20;;;4.90;;
29728;SDS011;20055;51.498;11.960;2023-02-28T00:44:48;9.18;;;4.85;;
29728;SDS011;20055;51.498;11.960;2023-02-28T00:47:14;10.70;;;4.93;;
29728;SDS011;20055;51.498;11.960;2023-02-28T00:49:42;9.65;;;5.07;;
29728;SDS011;20055;51.498;11.960;2023-02-28T00:52:09;8.90;;;5.78;;
29728;SDS011;20055;51.498;11.960;2023-02-28T00:54:35;10.40;;;4.88;;
29728;SDS011;20055;51.498;11.960;2023-02-28T00:57:02;11.45;;;4.53;;
29728;SDS011;20055;51.498;11.960;2023-02-28T00:59:28;10.00;;;5.15;;
29728;SDS011;20055;51.498;11.960;2023-02-28T01:01:55;12.27;;;5.03;;
29728;SDS011;20055;51.498;11.960;2023-02-28T01:04:22;11.13;;;4.63;;
29728;SDS011;20055;51.498;11.960;2023-02-28T01:06:48;7.57;;;4.47;;
29728;SDS011;20055;51.498;11.960;2023-02-28T01:09:15;9.00;;;4.93;;
29728;SDS011;20055;51.498;11.960;2023-02-28T01:11:42;8.70;;;4.75;;
29728;SDS011;20055;51.498;11.960;2023-02-28T01:14:13;6.93;;;4.20;;
29728;SDS011;20055;51.498;11.960;2023-02-28T01:16:40;6.55;;;4.53;;
29728;SDS011;20055;51.498;11.960;2023-02-28T01:19:07;13.48;;;5.00;;
29728;SDS011;20055;51.498;11.960;2023-02-28T01:21:33;14.13;;;6.43;;
29728;SDS011;20055;51.498;11.960;2023-02-28T01:24:01;7.47;;;5.15;;
29728;SDS011;20055;51.498;11.960;2023-02-28T01:26:28;13.23;;;6.13;;
29728;SDS011;20055;51.498;11.960;2023-02-28T01:28:55;12.73;;;6.25;;
29728;SDS011;20055;51.498;11.960;2023-02-28T01:31:21;7.28;;;4.53;;
29728;SDS011;20055;51.498;11.960;2023-02-28T01:33:48;8.50;;;5.00;;
29728;SDS011;20055;51.498;11.960;2023-02-28T01:36:16;8.85;;;4.78;;
29728;SDS011;20055;51.498;11.960;2023-02-28T01:38:43;12.48;;;4.80;;
29728;SDS011;20055;51.498;11.960;2023-02-28T01:41:20;14.10;;;5.20;;
29728;SDS011;20055;51.498;11.960;2023-02-28T01:46:14;9.75;;;4.32;;
29728;SDS011;20055;51.498;11.960;2023-02-28T01:48:45;9.90;;;5.30;;
29728;SDS011;20055;51.498;11.960;2023-02-28T01:51:18;11.25;;;5.45;;
29728;SDS011;20055;51.498;11.960;2023-02-28T01:53:49;12.98;;;6.05;;
29728;SDS011;20055;51.498;11.960;2023-02-28T01:56:20;14.30;;;6.05;;
29728;SDS011;20055;51.498;11.960;2023-02-28T01:58:51;17.27;;;6.53;;
29728;SDS011;20055;51.498;11.960;2023-02-28T02:01:19;11.27;;;6.45;;
29728;SDS011;20055;51.498;11.960;2023-02-28T02:03:48;9.40;;;5.50;;
29728;SDS011;20055;51.498;11.960;2023-02-28T02:06:25;7.78;;;4.75;;
29728;SDS011;20055;51.498;11.960;2023-02-28T02:08:51;9.57;;;5.22;;
29728;SDS011;20055;51.498;11.960;2023-02-28T02:11:19;6.35;;;3.75;;
29728;SDS011;20055;51.498;11.960;2023-02-28T02:18:53;11.10;;;5.30;;
29728;SDS011;20055;51.498;11.960;2023-02-28T02:26:47;10.57;;;4.55;;
29728;SDS011;20055;51.498;11.960;2023-02-28T02:29:23;11.23;;;4.55;;
29728;SDS011;20055;51.498;11.960;2023-02-28T02:32:16;9.95;;;4.28;;
29728;SDS011;20055;51.498;11.960;2023-02-28T02:39:50;14.90;;;5.32;;
29728;SDS011;20055;51.498;11.960;2023-02-28T02:42:39;11.85;;;4.85;;
29728;SDS011;20055;51.498;11.960;2023-02-28T02:47:42;7.60;;;4.25;;
29728;SDS011;20055;51.498;11.960;2023-02-28T02:50:12;11.35;;;4.72;;
29728;SDS011;20055;51.498;11.960;2023-02-28T02:52:42;9.63;;;4.45;;
29728;SDS011;20055;51.498;11.960;2023-02-28T02:55:10;8.65;;;4.18;;
29728;SDS011;20055;51.498;11.960;2023-02-28T02:57:40;11.73;;;4.40;;
29728;SDS011;20055;51.498;11.960;2023-02-28T03:00:10;6.53;;;3.83;;
29728;SDS011;20055;51.498;11.960;2023-02-28T03:02:37;6.25;;;3.83;;
29728;SDS011;20055;51.498;11.960;2023-02-28T03:05:07;5.50;;;4.20;;
29728;SDS011;20055;51.498;11.960;2023-02-28T03:07:34;5.60;;;3.50;;
29728;SDS011;20055;51.498;11.960;2023-02-28T03:10:01;9.95;;;3.95;;
29728;SDS011;20055;51.498;11.960;2023-02-28T03:12:32;5.82;;;3.97;;
29728;SDS011;20055;51.498;11.960;2023-02-28T03:15:43;11.15;;;4.50;;
29728;SDS011;20055;51.498;11.960;2023-02-28T03:22:56;12.23;;;4.05;;
29728;SDS011;20055;51.498;11.960;2023-02-28T03:28:00;9.65;;;4.78;;
29728;SDS011;20055;51.498;11.960;2023-02-28T03:30:36;5.47;;;3.97;;
29728;SDS011;20055;51.498;11.960;2023-02-28T03:33:12;5.68;;;3.80;;
29728;SDS011;20055;51.498;11.960;2023-02-28T03:38:41;6.00;;;4.05;;
29728;SDS011;20055;51.498;11.960;2023-02-28T03:43:38;8.43;;;3.88;;
29728;SDS011;20055;51.498;11.960;2023-02-28T03:46:07;6.17;;;3.97;;
29728;SDS011;20055;51.498;11.960;2023-02-28T03:48:36;7.07;;;4.18;;
29728;SDS011;20055;51.498;11.960;2023-02-28T03:51:05;8.45;;;4.22;;
29728;SDS011;20055;51.498;11.960;2023-02-28T03:53:34;6.30;;;4.13;;
29728;SDS011;20055;51.498;11.960;2023-02-28T03:56:05;8.45;;;3.80;;
29728;SDS011;20055;51.498;11.960;2023-02-28T03:58:37;8.70;;;4.43;;
29728;SDS011;20055;51.498;11.960;2023-02-28T04:01:07;7.68;;;3.88;;
29728;SDS011;20055;51.498;11.960;2023-02-28T04:03:35;8.60;;;4.22;;
29728;SDS011;20055;51.498;11.960;2023-02-28T04:06:02;7.90;;;4.00;;
29728;SDS011;20055;51.498;11.960;2023-02-28T04:08:29;7.50;;;4.60;;
29728;SDS011;20055;51.498;11.960;2023-02-28T04:11:08;10.20;;;4.35;;
29728;SDS011;20055;51.498;11.960;2023-02-28T04:13:39;5.00;;;3.53;;
29728;SDS011;20055;51.498;11.960;2023-02-28T04:16:06;10.52;;;4.00;;
29728;SDS011;20055;51.498;11.960;2023-02-28T04:18:38;9.25;;;3.60;;
29728;SDS011;20055;51.498;11.960;2023-02-28T04:21:06;7.93;;;4.72;;
29728;SDS011;20055;51.498;11.960;2023-02-28T04:23:33;8.32;;;4.72;;
29728;SDS011;20055;51.498;11.960;2023-02-28T04:25:59;15.27;;;4.03;;
29728;SDS011;20055;51.498;11.960;2023-02-28T04:28:26;12.18;;;4.38;;
29728;SDS011;20055;51.498;11.960;2023-02-28T04:31:01;8.30;;;4.50;;
29728;SDS011;20055;51.498;11.960;2023-02-28T04:33:28;10.75;;;4.43;;
29728;SDS011;20055;51.498;11.960;2023-02-28T04:35:58;6.88;;;4.15;;
29728;SDS011;20055;51.498;11.960;2023-02-28T04:38:25;11.68;;;4.85;;
29728;SDS011;20055;51.498;11.960;2023-02-28T04:40:52;7.38;;;4.45;;
29728;SDS011;20055;51.498;11.960;2023-02-28T04:43:18;7.10;;;4.45;;
29728;SDS011;20055;51.498;11.960;2023-02-28T04:45:45;12.80;;;4.80;;
29728;SDS011;20055;51.498;11.960;2023-02-28T04:48:11;11.48;;;4.68;;
29728;SDS011;20055;51.498;11.960;2023-02-28T04:50:38;8.20;;;5.30;;
29728;SDS011;20055;51.498;11.960;2023-02-28T04:53:05;8.13;;;4.53;;
29728;SDS011;20055;51.498;11.960;2023-02-28T04:55:31;10.90;;;4.90;;
29728;SDS011;20055;51.498;11.960;2023-02-28T04:57:58;7.80;;;3.88;;
29728;SDS011;20055;51.498;11.960;2023-02-28T05:00:24;11.43;;;4.30;;
29728;SDS011;20055;51.498;11.960;2023-02-28T05:02:51;11.38;;;4.38;;
29728;SDS011;20055;51.498;11.960;2023-02-28T05:05:17;8.48;;;4.75;;
29728;SDS011;20055;51.498;11.960;2023-02-28T05:07:44;9.32;;;5.05;;
29728;SDS011;20055;51.498;11.960;2023-02-28T05:10:11;15.45;;;5.10;;
29728;SDS011;20055;51.498;11.960;2023-02-28T05:12:38;13.05;;;5.20;;
29728;SDS011;20055;51.498;11.960;2023-02-28T05:15:05;10.50;;;4.88;;
29728;SDS011;20055;51.498;11.960;2023-02-28T05:17:32;6.43;;;4.60;;
29728;SDS011;20055;51.498;11.960;2023-02-28T05:19:58;12.13;;;5.30;;
29728;SDS011;20055;51.498;11.960;2023-02-28T05:22:25;6.57;;;4.20;;
29728;SDS011;20055;51.498;11.960;2023-02-28T05:24:52;9.73;;;5.22;;
29728;SDS011;20055;51.498;11.960;2023-02-28T05:39:01;8.45;;;3.83;;
29728;SDS011;20055;51.498;11.960;2023-02-28T05:41:28;11.70;;;5.00;;
29728;SDS011;20055;51.498;11.960;2023-02-28T05:43:55;14.38;;;4.97;;
29728;SDS011;20055;51.498;11.960;2023-02-28T05:46:23;8.43;;;4.72;;
29728;SDS011;20055;51.498;11.960;2023-02-28T05:48:49;13.10;;;4.97;;
29728;SDS011;20055;51.498;11.960;2023-02-28T05:51:16;13.65;;;5.05;;
29728;SDS011;20055;51.498;11.960;2023-02-28T05:53:43;8.60;;;5.22;;
29728;SDS011;20055;51.498;11.960;2023-02-28T05:56:10;15.23;;;5.38;;
29728;SDS011;20055;51.498;11.960;2023-02-28T05:58:36;10.52;;;5.38;;
29728;SDS011;20055;51.498;11.960;2023-02-28T06:01:22;9.07;;;5.40;;
29728;SDS011;20055;51.498;11.960;2023-02-28T06:03:49;16.38;;;5.88;;
29728;SDS011;20055;51.498;11.960;2023-02-28T06:06:15;9.40;;;5.38;;
29728;SDS011;20055;51.498;11.960;2023-02-28T06:08:42;9.20;;;5.18;;
29728;SDS011;20055;51.498;11.960;2023-02-28T06:11:10;10.15;;;4.95;;
29728;SDS011;20055;51.498;11.960;2023-02-28T06:13:36;15.45;;;5.75;;
29728;SDS011;20055;51.498;11.960;2023-02-28T06:16:03;9.35;;;6.10;;
29728;SDS011;20055;51.498;11.960;2023-02-28T06:18:30;7.05;;;5.38;;
29728;SDS011;20055;51.498;11.960;2023-02-28T06:20:56;12.52;;;6.55;;
29728;SDS011;20055;51.498;11.960;2023-02-28T06:23:23;11.88;;;6.47;;
29728;SDS011;20055;51.498;11.960;2023-02-28T06:25:49;15.27;;;5.75;;
29728;SDS011;20055;51.498;11.960;2023-02-28T06:28:16;19.08;;;6.53;;
29728;SDS011;20055;51.498;11.960;2023-02-28T06:30:42;13.55;;;6.97;;
29728;SDS011;20055;51.498;11.960;2023-02-28T06:33:09;13.13;;;7.70;;
29728;SDS011;20055;51.498;11.960;2023-02-28T06:35:36;21.52;;;9.55;;
29728;SDS011;20055;51.498;11.960;2023-02-28T06:38:03;14.00;;;6.82;;
29728;SDS011;20055;51.498;11.960;2023-02-28T06:40:30;22.58;;;7.30;;
29728;SDS011;20055;51.498;11.960;2023-02-28T06:42:59;18.52;;;5.68;;
29728;SDS011;20055;51.498;11.960;2023-02-28T06:45:26;13.13;;;5.95;;
29728;SDS011;20055;51.498;11.960;2023-02-28T06:47:52;13.23;;;6.72;;
29728;SDS011;20055;51.498;11.960;2023-02-28T06:50:19;20.60;;;6.70;;
29728;SDS011;20055;51.498;11.960;2023-02-28T06:52:46;11.60;;;6.50;;
29728;SDS011;20055;51.498;11.960;2023-02-28T06:55:12;12.13;;;6.32;;
29728;SDS011;20055;51.498;11.960;2023-02-28T06:57:39;17.00;;;6.95;;
29728;SDS011;20055;51.498;11.960;2023-02-28T07:00:07;13.63;;;5.82;;
29728;SDS011;20055;51.498;11.960;2023-02-28T07:02:34;12.40;;;6.25;;
29728;SDS011;20055;51.498;11.960;2023-02-28T07:05:01;17.88;;;6.88;;
29728;SDS011;20055;51.498;11.960;2023-02-28T07:07:28;9.27;;;4.68;;
29728;SDS011;20055;51.498;11.960;2023-02-28T07:09:54;20.90;;;6.00;;
29728;SDS011;20055;51.498;11.960;2023-02-28T07:12:21;12.70;;;5.75;;
29728;SDS011;20055;51.498;11.960;2023-02-28T07:14:47;14.02;;;7.22;;
29728;SDS011;20055;51.498;11.960;2023-02-28T07:17:14;20.50;;;10.30;;
29728;SDS011;20055;51.498;11.960;2023-02-28T07:19:40;25.35;;;11.05;;
29728;SDS011;20055;51.498;11.960;2023-02-28T07:22:07;27.23;;;9.80;;
29728;SDS011;20055;51.498;11.960;2023-02-28T07:24:34;14.50;;;6.88;;
29728;SDS011;20055;51.498;11.960;2023-02-28T07:27:00;28.10;;;8.68;;
29728;SDS011;20055;51.498;11.960;2023-02-28T07:29:27;16.65;;;7.68;;
29728;SDS011;20055;51.498;11.960;2023-02-28T07:31:54;13.23;;;7.35;;
29728;SDS011;20055;51.498;11.960;2023-02-28T07:34:20;14.60;;;6.22;;
29728;SDS011;20055;51.498;11.960;2023-02-28T07:36:47;21.55;;;6.28;;
29728;SDS011;20055;51.498;11.960;2023-02-28T07:39:13;19.17;;;8.60;;
29728;SDS011;20055;51.498;11.960;2023-02-28T07:41:40;13.27;;;6.28;;
29728;SDS011;20055;51.498;11.960;2023-02-28T07:44:09;12.38;;;6.95;;
29728;SDS011;20055;51.498;11.960;2023-02-28T07:46:36;11.57;;;6.72;;
29728;SDS011;20055;51.498;11.960;2023-02-28T07:49:03;16.45;;;6.35;;
29728;SDS011;20055;51.498;11.960;2023-02-28T07:51:29;13.40;;;5.22;;
29728;SDS011;20055;51.498;11.960;2023-02-28T07:53:56;12.10;;;5.68;;
29728;SDS011;20055;51.498;11.960;2023-02-28T07:56:23;13.93;;;5.50;;
29728;SDS011;20055;51.498;11.960;2023-02-28T07:58:49;16.92;;;6.13;;
29728;SDS011;20055;51.498;11.960;2023-02-28T08:01:16;14.48;;;6.10;;
29728;SDS011;20055;51.498;11.960;2023-02-28T08:03:44;17.42;;;5.32;;
29728;SDS011;20055;51.498;11.960;2023-02-28T08:06:15;14.63;;;7.60;;
29728;SDS011;20055;51.498;11.960;2023-02-28T08:08:42;11.90;;;6.28;;
29728;SDS011;20055;51.498;11.960;2023-02-28T08:11:10;10.52;;;5.72;;
29728;SDS011;20055;51.498;11.960;2023-02-28T08:13:36;14.98;;;5.25;;
29728;SDS011;20055;51.498;11.960;2023-02-28T08:16:03;14.30;;;5.95;;
29728;SDS011;20055;51.498;11.960;2023-02-28T08:18:29;20.17;;;8.13;;
29728;SDS011;20055;51.498;11.960;2023-02-28T08:20:56;17.88;;;7.13;;
29728;SDS011;20055;51.498;11.960;2023-02-28T08:23:23;23.15;;;6.13;;
29728;SDS011;20055;51.498;11.960;2023-02-28T08:25:53;9.52;;;5.85;;
29728;SDS011;20055;51.498;11.960;2023-02-28T08:30:50;17.10;;;6.87;;
29728;SDS011;20055;51.498;11.960;2023-02-28T08:33:16;19.65;;;7.35;;
29728;SDS011;20055;51.498;11.960;2023-02-28T08:35:43;15.43;;;7.47;;
29728;SDS011;20055;51.498;11.960;2023-02-28T08:38:09;17.95;;;7.50;;
29728;SDS011;20055;51.498;11.960;2023-02-28T08:40:36;13.30;;;6.60;;
29728;SDS011;20055;51.498;11.960;2023-02-28T08:43:03;14.18;;;6.55;;
29728;SDS011;20055;51.498;11.960;2023-02-28T08:45:29;13.93;;;6.70;;
29728;SDS011;20055;51.498;11.960;2023-02-28T08:47:56;18.10;;;8.23;;
29728;SDS011;20055;51.498;11.960;2023-02-28T08:50:22;12.65;;;6.60;;
29728;SDS011;20055;51.498;11.960;2023-02-28T08:52:49;33.30;;;7.05;;
29728;SDS011;20055;51.498;11.960;2023-02-28T08:55:16;16.42;;;7.28;;
29728;SDS011;20055;51.498;11.960;2023-02-28T08:57:42;12.05;;;5.53;;
29728;SDS011;20055;51.498;11.960;2023-02-28T09:00:09;9.45;;;5.40;;
29728;SDS011;20055;51.498;11.960;2023-02-28T09:02:39;11.15;;;6.07;;
29728;SDS011;20055;51.498;11.960;2023-02-28T09:05:06;13.00;;;6.05;;
29728;SDS011;20055;51.498;11.960;2023-02-28T09:07:32;10.38;;;5.75;;
29728;SDS011;20055;51.498;11.960;2023-02-28T09:09:59;10.05;;;4.85;;
29728;SDS011;20055;51.498;11.960;2023-02-28T09:12:26;16.27;;;5.93;;
29728;SDS011;20055;51.498;11.960;2023-02-28T09:14:53;15.68;;;5.85;;
29728;SDS011;20055;51.498;11.960;2023-02-28T09:17:20;12.45;;;6.03;;
29728;SDS011;20055;51.498;11.960;2023-02-28T09:19:47;13.75;;;5.75;;
29728;SDS011;20055;51.498;11.960;2023-02-28T09:22:14;28.85;;;7.10;;
29728;SDS011;20055;51.498;11.960;2023-02-28T09:24:41;10.40;;;6.05;;
29728;SDS011;20055;51.498;11.960;2023-02-28T09:27:08;13.13;;;6.25;;
29728;SDS011;20055;51.498;11.960;2023-02-28T09:29:34;9.43;;;5.95;;
29728;SDS011;20055;51.498;11.960;2023-02-28T09:32:01;9.15;;;6.22;;
29728;SDS011;20055;51.498;11.960;2023-02-28T09:34:28;9.05;;;5.95;;
29728;SDS011;20055;51.498;11.960;2023-02-28T09:36:58;10.35;;;5.47;;
29728;SDS011;20055;51.498;11.960;2023-02-28T09:39:24;11.27;;;5.75;;
29728;SDS011;20055;51.498;11.960;2023-02-28T09:41:52;14.35;;;6.40;;
29728;SDS011;20055;51.498;11.960;2023-02-28T09:44:34;11.15;;;6.07;;
29728;SDS011;20055;51.498;11.960;2023-02-28T09:47:05;13.80;;;5.80;;
29728;SDS011;20055;51.498;11.960;2023-02-28T09:49:38;16.10;;;6.10;;
29728;SDS011;20055;51.498;11.960;2023-02-28T09:52:07;9.82;;;5.07;;
29728;SDS011;20055;51.498;11.960;2023-02-28T09:54:35;9.00;;;4.88;;
29728;SDS011;20055;51.498;11.960;2023-02-28T09:57:11;12.27;;;5.78;;
29728;SDS011;20055;51.498;11.960;2023-02-28T10:07:06;8.68;;;4.45;;
29728;SDS011;20055;51.498;11.960;2023-02-28T10:09:43;12.38;;;5.47;;
29728;SDS011;20055;51.498;11.960;2023-02-28T10:12:11;6.32;;;3.83;;
29728;SDS011;20055;51.498;11.960;2023-02-28T10:14:39;8.57;;;3.80;;
29728;SDS011;20055;51.498;11.960;2023-02-28T10:17:09;6.50;;;4.20;;
29728;SDS011;20055;51.498;11.960;2023-02-28T10:19:44;6.78;;;4.15;;
29728;SDS011;20055;51.498;11.960;2023-02-28T10:22:14;8.70;;;4.22;;
29728;SDS011;20055;51.498;11.960;2023-02-28T10:24:47;7.40;;;4.27;;
29728;SDS011;20055;51.498;11.960;2023-02-28T10:27:15;10.77;;;4.82;;
29728;SDS011;20055;51.498;11.960;2023-02-28T10:29:43;8.05;;;4.50;;
29728;SDS011;20055;51.498;11.960;2023-02-28T10:32:11;10.55;;;4.70;;
29728;SDS011;20055;51.498;11.960;2023-02-28T10:34:39;8.80;;;4.65;;
29728;SDS011;20055;51.498;11.960;2023-02-28T10:37:06;12.55;;;5.63;;
29728;SDS011;20055;51.498;11.960;2023-02-28T10:39:45;14.27;;;4.90;;
29728;SDS011;20055;51.498;11.960;2023-02-28T10:42:26;10.05;;;5.38;;
29728;SDS011;20055;51.498;11.960;2023-02-28T10:47:52;9.25;;;5.40;;
29728;SDS011;20055;51.498;11.960;2023-02-28T10:52:53;15.90;;;5.30;;
29728;SDS011;20055;51.498;11.960;2023-02-28T10:55:24;9.68;;;5.43;;
29728;SDS011;20055;51.498;11.960;2023-02-28T10:57:51;14.35;;;5.72;;
29728;SDS011;20055;51.498;11.960;2023-02-28T11:00:19;10.90;;;6.45;;
29728;SDS011;20055;51.498;11.960;2023-02-28T11:02:47;14.02;;;5.43;;
29728;SDS011;20055;51.498;11.960;2023-02-28T11:05:28;13.52;;;5.93;;
29728;SDS011;20055;51.498;11.960;2023-02-28T11:07:56;9.68;;;5.28;;
29728;SDS011;20055;51.498;11.960;2023-02-28T11:10:24;13.18;;;6.03;;
29728;SDS011;20055;51.498;11.960;2023-02-28T11:12:54;24.75;;;5.80;;
29728;SDS011;20055;51.498;11.960;2023-02-28T11:17:54;14.55;;;5.65;;
29728;SDS011;20055;51.498;11.960;2023-02-28T11:20:23;11.38;;;5.97;;
29728;SDS011;20055;51.498;11.960;2023-02-28T11:22:50;9.23;;;5.93;;
29728;SDS011;20055;51.498;11.960;2023-02-28T11:25:21;9.88;;;5.75;;
29728;SDS011;20055;51.498;11.960;2023-02-28T11:27:49;33.30;;;6.45;;
29728;SDS011;20055;51.498;11.960;2023-02-28T11:36:00;15.20;;;5.70;;
29728;SDS011;20055;51.498;11.960;2023-02-28T11:38:27;10.70;;;5.88;;
29728;SDS011;20055;51.498;11.960;2023-02-28T11:48:27;12.02;;;6.80;;
29728;SDS011;20055;51.498;11.960;2023-02-28T11:56:16;14.88;;;6.15;;
29728;SDS011;20055;51.498;11.960;2023-02-28T11:59:10;11.25;;;6.22;;
29728;SDS011;20055;51.498;11.960;2023-02-28T12:06:52;14.50;;;6.00;;
29728;SDS011;20055;51.498;11.960;2023-02-28T12:11:56;8.52;;;6.38;;
29728;SDS011;20055;51.498;11.960;2023-02-28T12:19:20;17.23;;;5.70;;
29728;SDS011;20055;51.498;11.960;2023-02-28T12:22:03;11.23;;;6.13;;
29728;SDS011;20055;51.498;11.960;2023-02-28T12:24:44;11.77;;;6.85;;
29728;SDS011;20055;51.498;11.960;2023-02-28T12:27:14;11.75;;;5.82;;
29728;SDS011;20055;51.498;11.960;2023-02-28T12:29:46;16.50;;;6.85;;
29728;SDS011;20055;51.498;11.960;2023-02-28T12:32:25;14.40;;;6.15;;
29728;SDS011;20055;51.498;11.960;2023-02-28T12:34:55;14.25;;;6.57;;
29728;SDS011;20055;51.498;11.960;2023-02-28T12:37:28;11.98;;;6.30;;
29728;SDS011;20055;51.498;11.960;2023-02-28T12:40:01;18.15;;;7.10;;
29728;SDS011;20055;51.498;11.960;2023-02-28T12:42:36;15.18;;;7.07;;
29728;SDS011;20055;51.498;11.960;2023-02-28T12:45:22;13.90;;;6.47;;
29728;SDS011;20055;51.498;11.960;2023-02-28T12:47:51;27.73;;;7.93;;
29728;SDS011;20055;51.498;11.960;2023-02-28T12:50:19;15.25;;;7.32;;
29728;SDS011;20055;51.498;11.960;2023-02-28T12:55:19;17.23;;;6.70;;
29728;SDS011;20055;51.498;11.960;2023-02-28T13:00:15;10.38;;;6.10;;
29728;SDS011;20055;51.498;11.960;2023-02-28T13:10:42;7.75;;;5.50;;
29728;SDS011;20055;51.498;11.960;2023-02-28T13:13:17;12.88;;;6.20;;
29728;SDS011;20055;51.498;11.960;2023-02-28T13:18:44;10.65;;;5.75;;
29728;SDS011;20055;51.498;11.960;2023-02-28T13:21:29;16.50;;;6.20;;
29728;SDS011;20055;51.498;11.960;2023-02-28T13:24:00;14.57;;;6.30;;
29728;SDS011;20055;51.498;11.960;2023-02-28T13:29:00;13.27;;;6.50;;
29728;SDS011;20055;51.498;11.960;2023-02-28T13:31:27;12.93;;;6.72;;
29728;SDS011;20055;51.498;11.960;2023-02-28T13:36:28;13.52;;;6.80;;
29728;SDS011;20055;51.498;11.960;2023-02-28T13:43:58;12.73;;;6.50;;
29728;SDS011;20055;51.498;11.960;2023-02-28T14:07:33;10.75;;;6.65;;
29728;SDS011;20055;51.498;11.960;2023-02-28T14:10:04;12.88;;;7.25;;
29728;SDS011;20055;51.498;11.960;2023-02-28T14:20:46;17.30;;;6.63;;
29728;SDS011;20055;51.498;11.960;2023-02-28T14:23:16;16.88;;;7.65;;
29728;SDS011;20055;51.498;11.960;2023-02-28T14:38:25;14.65;;;7.40;;
29728;SDS011;20055;51.498;11.960;2023-02-28T14:40:54;15.30;;;7.07;;
29728;SDS011;20055;51.498;11.960;2023-02-28T14:43:23;11.52;;;6.00;;
29728;SDS011;20055;51.498;11.960;2023-02-28T14:45:51;25.13;;;6.70;;
29728;SDS011;20055;51.498;11.960;2023-02-28T14:48:19;14.55;;;6.20;;
29728;SDS011;20055;51.498;11.960;2023-02-28T14:50:50;9.50;;;5.53;;
29728;SDS011;20055;51.498;11.960;2023-02-28T14:53:18;15.40;;;6.35;;
29728;SDS011;20055;51.498;11.960;2023-02-28T14:55:46;12.63;;;6.60;;
29728;SDS011;20055;51.498;11.960;2023-02-28T14:58:21;11.77;;;6.53;;
29728;SDS011;20055;51.498;11.960;2023-02-28T15:00:49;15.70;;;6.78;;
29728;SDS011;20055;51.498;11.960;2023-02-28T15:03:35;11.98;;;6.72;;
29728;SDS011;20055;51.498;11.960;2023-02-28T15:06:03;10.30;;;5.70;;
29728;SDS011;20055;51.498;11.960;2023-02-28T15:08:31;15.80;;;6.57;;
29728;SDS011;20055;51.498;11.960;2023-02-28T15:13:31;14.23;;;6.47;;
29728;SDS011;20055;51.498;11.960;2023-02-28T15:16:02;9.60;;;5.80;;
29728;SDS011;20055;51.498;11.960;2023-02-28T15:21:04;14.25;;;6.22;;
29728;SDS011;20055;51.498;11.960;2023-02-28T15:23:32;13.10;;;6.78;;
29728;SDS011;20055;51.498;11.960;2023-02-28T15:25:59;11.80;;;7.13;;
29728;SDS011;20055;51.498;11.960;2023-02-28T15:28:27;17.70;;;6.47;;
29728;SDS011;20055;51.498;11.960;2023-02-28T15:30:55;10.18;;;6.72;;
29728;SDS011;20055;51.498;11.960;2023-02-28T15:33:24;14.52;;;5.78;;
29728;SDS011;20055;51.498;11.960;2023-02-28T15:35:51;16.17;;;7.28;;
29728;SDS011;20055;51.498;11.960;2023-02-28T15:40:54;13.07;;;6.30;;
29728;SDS011;20055;51.498;11.960;2023-02-28T15:43:28;17.00;;;7.82;;
29728;SDS011;20055;51.498;11.960;2023-02-28T15:48:32;11.83;;;6.60;;
29728;SDS011;20055;51.498;11.960;2023-02-28T15:51:14;13.13;;;7.00;;
29728;SDS011;20055;51.498;11.960;2023-02-28T15:54:02;14.27;;;6.00;;
29728;SDS011;20055;51.498;11.960;2023-02-28T15:56:31;12.38;;;6.20;;
29728;SDS011;20055;51.498;11.960;2023-02-28T15:59:03;21.65;;;6.55;;
29728;SDS011;20055;51.498;11.960;2023-02-28T16:04:02;16.27;;;7.65;;
29728;SDS011;20055;51.498;11.960;2023-02-28T16:06:36;14.90;;;6.50;;
29728;SDS011;20055;51.498;11.960;2023-02-28T16:09:04;20.88;;;7.10;;
29728;SDS011;20055;51.498;11.960;2023-02-28T16:11:34;15.50;;;7.47;;
29728;SDS011;20055;51.498;11.960;2023-02-28T16:14:01;11.57;;;6.70;;
29728;SDS011;20055;51.498;11.960;2023-02-28T16:16:28;30.60;;;11.13;;
29728;SDS011;20055;51.498;11.960;2023-02-28T16:18:55;11.80;;;6.93;;
29728;SDS011;20055;51.498;11.960;2023-02-28T16:21:21;14.93;;;6.93;;
29728;SDS011;20055;51.498;11.960;2023-02-28T16:23:48;15.55;;;7.97;;
29728;SDS011;20055;51.498;11.960;2023-02-28T16:26:21;15.73;;;7.18;;
29728;SDS011;20055;51.498;11.960;2023-02-28T16:28:49;19.35;;;7.38;;
29728;SDS011;20055;51.498;11.960;2023-02-28T16:31:16;18.42;;;7.47;;
29728;SDS011;20055;51.498;11.960;2023-02-28T16:33:43;21.60;;;8.05;;
29728;SDS011;20055;51.498;11.960;2023-02-28T16:36:17;11.07;;;7.07;;
29728;SDS011;20055;51.498;11.960;2023-02-28T16:38:44;16.98;;;8.13;;
29728;SDS011;20055;51.498;11.960;2023-02-28T16:41:16;13.90;;;8.30;;
29728;SDS011;20055;51.498;11.960;2023-02-28T16:43:49;19.13;;;8.88;;
29728;SDS011;20055;51.498;11.960;2023-02-28T16:46:16;19.02;;;9.73;;
29728;SDS011;20055;51.498;11.960;2023-02-28T16:48:43;20.58;;;8.68;;
29728;SDS011;20055;51.498;11.960;2023-02-28T16:51:14;20.13;;;8.10;;
29728;SDS011;20055;51.498;11.960;2023-02-28T16:53:41;26.35;;;9.88;;
29728;SDS011;20055;51.498;11.960;2023-02-28T16:56:29;17.25;;;9.05;;
29728;SDS011;20055;51.498;11.960;2023-02-28T16:58:55;16.60;;;9.07;;
29728;SDS011;20055;51.498;11.960;2023-02-28T17:01:24;23.15;;;10.02;;
29728;SDS011;20055;51.498;11.960;2023-02-28T17:03:52;23.35;;;10.00;;
29728;SDS011;20055;51.498;11.960;2023-02-28T17:06:23;20.70;;;9.70;;
29728;SDS011;20055;51.498;11.960;2023-02-28T17:08:51;19.33;;;9.32;;
29728;SDS011;20055;51.498;11.960;2023-02-28T17:11:18;21.90;;;10.40;;
29728;SDS011;20055;51.498;11.960;2023-02-28T17:13:44;20.13;;;9.80;;
29728;SDS011;20055;51.498;11.960;2023-02-28T17:16:30;19.58;;;9.73;;
29728;SDS011;20055;51.498;11.960;2023-02-28T17:18:59;23.90;;;9.90;;
29728;SDS011;20055;51.498;11.960;2023-02-28T17:21:26;22.23;;;11.43;;
29728;SDS011;20055;51.498;11.960;2023-02-28T17:23:53;34.80;;;11.52;;
29728;SDS011;20055;51.498;11.960;2023-02-28T17:26:20;21.55;;;11.63;;
29728;SDS011;20055;51.498;11.960;2023-02-28T17:28:48;26.08;;;10.73;;
29728;SDS011;20055;51.498;11.960;2023-02-28T17:31:16;26.05;;;10.57;;